createdAt,value
2017-07-26T00:01:12.230Z,1008.26
2017-07-26T00:02:34.066Z,1008.22
2017-07-26T00:03:56.279Z,1008.23
2017-07-26T00:05:17.806Z,1008.27
2017-07-26T00:06:40.272Z,1008.25
2017-07-26T00:08:02.547Z,1008.27
2017-07-26T00:09:24.706Z,1008.31
2017-07-26T00:10:46.553Z,1008.28
2017-07-26T00:12:09.066Z,1008.3
2017-07-26T00:13:31.247Z,1008.31
2017-07-26T00:14:53.406Z,1008.31
2017-07-26T00:16:15.247Z,1008.34
2017-07-26T00:17:37.748Z,1008.36
2017-07-26T00:18:59.916Z,1008.33
2017-07-26T00:20:21.451Z,1008.42
2017-07-26T00:21:44.037Z,1008.45
2017-07-26T00:23:06.753Z,1008.42
2017-07-26T00:24:28.904Z,1008.45
2017-07-26T00:25:51.079Z,1008.47
2017-07-26T00:27:13.287Z,1008.46
2017-07-26T00:28:35.946Z,1008.48
2017-07-26T00:29:57.845Z,1008.46
2017-07-26T00:31:19.357Z,1008.53
2017-07-26T00:32:41.518Z,1008.5
2017-07-26T00:34:03.976Z,1008.5
2017-07-26T00:35:25.947Z,1008.51
2017-07-26T00:36:48.115Z,1008.46
2017-07-26T00:38:09.962Z,1008.53
2017-07-26T00:39:32.237Z,1008.49
2017-07-26T00:40:54.086Z,1008.54
2017-07-26T00:42:15.948Z,1008.53
2017-07-26T00:43:37.486Z,1008.52
2017-07-26T00:44:59.931Z,1008.54
2017-07-26T00:46:21.482Z,1008.56
2017-07-26T00:47:43.436Z,1008.53
2017-07-26T00:49:05.596Z,1008.54
2017-07-26T00:50:27.698Z,1008.52
2017-07-26T00:51:49.653Z,1008.49
2017-07-26T00:53:12.125Z,1008.45
2017-07-26T00:54:33.973Z,1008.47
2017-07-26T00:55:56.066Z,1008.45
2017-07-26T00:57:17.586Z,1008.41
2017-07-26T00:58:39.418Z,1008.44
2017-07-26T01:00:00.986Z,1008.42
2017-07-26T01:01:23.439Z,1008.46
2017-07-26T01:02:45.282Z,1008.46
2017-07-26T01:04:07.437Z,1008.44
2017-07-26T01:05:29.607Z,1008.43
2017-07-26T01:06:52.408Z,1008.41
2017-07-26T01:08:14.577Z,1008.38
2017-07-26T01:09:37.056Z,1008.44
2017-07-26T01:10:58.907Z,1008.38
2017-07-26T01:12:21.468Z,1008.41
2017-07-26T01:13:43.006Z,1008.46
2017-07-26T01:15:05.164Z,1008.37
2017-07-26T01:16:26.666Z,1008.35
2017-07-26T01:17:48.172Z,1008.39
2017-07-26T01:19:10.666Z,1008.38
2017-07-26T01:20:32.496Z,1008.41
2017-07-26T01:21:54.984Z,1008.43
2017-07-26T01:23:17.847Z,1008.4
2017-07-26T01:24:39.975Z,1008.42
2017-07-26T01:26:02.143Z,1008.45
2017-07-26T01:27:24.287Z,1008.41
2017-07-26T01:28:46.982Z,1008.46
2017-07-26T01:30:08.827Z,1008.45
2017-07-26T01:31:31.033Z,1008.48
2017-07-26T01:32:53.497Z,1008.45
2017-07-26T01:34:15.937Z,1008.45
2017-07-26T01:35:37.466Z,1008.48
2017-07-26T01:36:59.298Z,1008.48
2017-07-26T01:38:21.208Z,1008.45
2017-07-26T01:39:43.617Z,1008.4
2017-07-26T01:41:05.165Z,1008.37
2017-07-26T01:42:27.316Z,1008.36
2017-07-26T01:43:48.238Z,1008.43
2017-07-26T01:45:10.099Z,1008.41
2017-07-26T01:46:31.937Z,1008.47
2017-07-26T01:47:53.457Z,1008.42
2017-07-26T01:49:14.656Z,1008.4
2017-07-26T01:50:36.775Z,1008.43
2017-07-26T01:51:58.926Z,1008.46
2017-07-26T01:53:20.757Z,1008.4
2017-07-26T01:54:42.629Z,1008.41
2017-07-26T01:56:05.038Z,1008.35
2017-07-26T01:57:27.506Z,1008.37
2017-07-26T01:58:49.353Z,1008.31
2017-07-26T02:00:11.805Z,1008.35
2017-07-26T02:01:33.997Z,1008.33
2017-07-26T02:02:56.476Z,1008.35
2017-07-26T02:04:18.707Z,1008.3
2017-07-26T02:05:40.261Z,1008.32
2017-07-26T02:07:03.059Z,1008.36
2017-07-26T02:08:24.902Z,1008.34
2017-07-26T02:09:46.757Z,1008.31
2017-07-26T02:11:08.347Z,1008.31
2017-07-26T02:12:30.496Z,1008.34
2017-07-26T02:13:52.977Z,1008.36
2017-07-26T02:15:14.808Z,1008.35
2017-07-26T02:16:37.059Z,1008.33
2017-07-26T02:17:58.829Z,1008.35
2017-07-26T02:19:21.315Z,1008.4
2017-07-26T02:20:43.497Z,1008.34
2017-07-26T02:22:05.339Z,1008.37
2017-07-26T02:23:27.406Z,1008.39
2017-07-26T02:24:49.287Z,1008.42
2017-07-26T02:26:11.452Z,1008.38
2017-07-26T02:27:33.947Z,1008.4
2017-07-26T02:28:56.678Z,1008.34
2017-07-26T02:30:19.246Z,1008.39
2017-07-26T02:31:41.096Z,1008.36
2017-07-26T02:33:02.749Z,1008.37
2017-07-26T02:34:24.736Z,1008.39
2017-07-26T02:35:46.267Z,1008.4
2017-07-26T02:37:08.391Z,1008.41
2017-07-26T02:38:30.229Z,1008.37
2017-07-26T02:39:52.297Z,1008.42
2017-07-26T02:41:14.197Z,1008.38
2017-07-26T02:42:36.362Z,1008.4
2017-07-26T02:43:59.000Z,1008.38
2017-07-26T02:45:20.857Z,1008.39
2017-07-26T02:46:43.349Z,1008.39
2017-07-26T02:48:05.846Z,1008.37
2017-07-26T02:49:27.375Z,1008.39
2017-07-26T02:50:49.508Z,1008.38
2017-07-26T02:52:11.537Z,1008.38
2017-07-26T02:53:33.497Z,1008.43
2017-07-26T02:54:55.653Z,1008.43
2017-07-26T02:56:18.036Z,1008.42
2017-07-26T02:57:39.888Z,1008.41
2017-07-26T02:59:01.725Z,1008.42
2017-07-26T03:00:22.944Z,1008.42
2017-07-26T03:01:45.357Z,1008.4
2017-07-26T03:03:07.863Z,1008.38
2017-07-26T03:04:29.718Z,1008.44
2017-07-26T03:05:51.231Z,1008.42
2017-07-26T03:07:13.431Z,1008.43
2017-07-26T03:08:35.574Z,1008.46
2017-07-26T03:09:57.734Z,1008.48
2017-07-26T03:11:19.884Z,1008.5
2017-07-26T03:12:42.696Z,1008.48
2017-07-26T03:14:04.856Z,1008.52
2017-07-26T03:15:26.682Z,1008.47
2017-07-26T03:16:48.826Z,1008.48
2017-07-26T03:18:11.167Z,1008.5
2017-07-26T03:19:32.817Z,1008.47
2017-07-26T03:20:55.277Z,1008.43
2017-07-26T03:22:17.826Z,1008.39
2017-07-26T03:23:40.365Z,1008.41
2017-07-26T03:25:02.197Z,1008.36
2017-07-26T03:26:24.657Z,1008.35
2017-07-26T03:27:47.238Z,1008.37
2017-07-26T03:29:09.694Z,1008.34
2017-07-26T03:30:31.519Z,1008.37
2017-07-26T03:31:53.667Z,1008.36
2017-07-26T03:33:15.226Z,1008.37
2017-07-26T03:34:37.978Z,1008.39
2017-07-26T03:35:59.538Z,1008.36
2017-07-26T03:37:21.735Z,1008.33
2017-07-26T03:38:43.247Z,1008.33
2017-07-26T03:40:05.008Z,1008.31
2017-07-26T03:41:26.848Z,1008.28
2017-07-26T03:42:49.147Z,1008.28
2017-07-26T03:44:10.976Z,1008.3
2017-07-26T03:45:32.939Z,1008.25
2017-07-26T03:46:54.775Z,1008.24
2017-07-26T03:48:17.285Z,1008.25
2017-07-26T03:49:39.531Z,1008.29
2017-07-26T03:51:01.051Z,1008.26
2017-07-26T03:52:22.868Z,1008.29
2017-07-26T03:53:44.387Z,1008.3
2017-07-26T03:55:05.956Z,1008.27
2017-07-26T03:56:27.488Z,1008.29
2017-07-26T03:57:50.118Z,1008.28
2017-07-26T03:59:11.976Z,1008.29
2017-07-26T04:00:34.417Z,1008.27
2017-07-26T04:01:56.241Z,1008.25
2017-07-26T04:03:18.127Z,1008.28
2017-07-26T04:04:40.298Z,1008.29
2017-07-26T04:06:02.452Z,1008.33
2017-07-26T04:07:24.246Z,1008.3
2017-07-26T04:08:46.394Z,1008.32
2017-07-26T04:10:08.217Z,1008.32
2017-07-26T04:11:29.738Z,1008.37
2017-07-26T04:12:52.205Z,1008.36
2017-07-26T04:14:14.568Z,1008.36
2017-07-26T04:15:36.787Z,1008.32
2017-07-26T04:16:58.612Z,1008.37
2017-07-26T04:18:21.098Z,1008.37
2017-07-26T04:19:43.356Z,1008.4
2017-07-26T04:21:05.516Z,1008.38
2017-07-26T04:22:27.079Z,1008.37
2017-07-26T04:23:48.954Z,1008.33
2017-07-26T04:25:11.126Z,1008.36
2017-07-26T04:26:33.727Z,1008.31
2017-07-26T04:27:55.246Z,1008.35
2017-07-26T04:29:17.387Z,1008.35
2017-07-26T04:30:39.355Z,1008.38
2017-07-26T04:32:01.595Z,1008.34
2017-07-26T04:33:24.054Z,1008.33
2017-07-26T04:34:46.289Z,1008.34
2017-07-26T04:36:08.436Z,1008.36
2017-07-26T04:37:30.369Z,1008.34
2017-07-26T04:38:52.517Z,1008.34
2017-07-26T04:40:15.312Z,1008.32
2017-07-26T04:41:37.467Z,1008.34
2017-07-26T04:42:59.388Z,1008.36
2017-07-26T04:44:21.909Z,1008.31
2017-07-26T04:45:43.757Z,1008.33
2017-07-26T04:47:05.297Z,1008.27
2017-07-26T04:48:27.827Z,1008.32
2017-07-26T04:49:50.011Z,1008.28
2017-07-26T04:51:11.479Z,1008.28
2017-07-26T04:52:32.989Z,1008.32
2017-07-26T04:53:54.849Z,1008.31
2017-07-26T04:55:16.381Z,1008.28
2017-07-26T04:56:38.506Z,1008.28
2017-07-26T04:58:00.387Z,1008.31
2017-07-26T04:59:22.226Z,1008.28
2017-07-26T05:00:43.799Z,1008.24
2017-07-26T05:02:05.957Z,1008.23
2017-07-26T05:03:27.898Z,1008.23
2017-07-26T05:04:49.927Z,1008.26
2017-07-26T05:06:11.765Z,1008.26
2017-07-26T05:07:33.540Z,1008.27
2017-07-26T05:08:55.986Z,1008.34
2017-07-26T05:10:17.827Z,1008.37
2017-07-26T05:11:40.012Z,1008.32
2017-07-26T05:13:01.832Z,1008.35
2017-07-26T05:14:24.056Z,1008.36
2017-07-26T05:15:45.592Z,1008.35
2017-07-26T05:17:07.735Z,1008.31
2017-07-26T05:18:30.179Z,1008.3
2017-07-26T05:19:51.785Z,1008.3
2017-07-26T05:21:14.088Z,1008.33
2017-07-26T05:22:36.247Z,1008.27
2017-07-26T05:23:58.655Z,1008.28
2017-07-26T05:25:20.477Z,1008.26
2017-07-26T05:26:42.330Z,1008.25
2017-07-26T05:28:04.212Z,1008.24
2017-07-26T05:29:26.963Z,1008.23
2017-07-26T05:30:48.896Z,1008.26
2017-07-26T05:32:10.787Z,1008.27
2017-07-26T05:33:33.061Z,1008.3
2017-07-26T05:34:55.517Z,1008.3
2017-07-26T05:36:17.346Z,1008.38
2017-07-26T05:37:39.509Z,1008.35
2017-07-26T05:39:01.681Z,1008.4
2017-07-26T05:40:23.809Z,1008.41
2017-07-26T05:41:45.967Z,1008.4
2017-07-26T05:43:07.510Z,1008.41
2017-07-26T05:44:29.989Z,1008.42
2017-07-26T05:45:51.764Z,1008.43
2017-07-26T05:47:13.602Z,1008.42
2017-07-26T05:48:35.455Z,1008.41
2017-07-26T05:49:57.607Z,1008.46
2017-07-26T05:51:19.502Z,1008.47
2017-07-26T05:52:41.391Z,1008.5
2017-07-26T05:54:03.595Z,1008.49
2017-07-26T05:55:25.444Z,1008.5
2017-07-26T05:56:47.997Z,1008.53
2017-07-26T05:58:10.476Z,1008.56
2017-07-26T05:59:32.126Z,1008.58
2017-07-26T06:00:54.331Z,1008.58
2017-07-26T06:02:16.517Z,1008.59
2017-07-26T06:03:38.465Z,1008.62
2017-07-26T06:05:00.628Z,1008.63
2017-07-26T06:06:22.787Z,1008.59
2017-07-26T06:07:44.256Z,1008.58
2017-07-26T06:09:06.103Z,1008.52
2017-07-26T06:10:27.947Z,1008.53
2017-07-26T06:11:50.086Z,1008.54
2017-07-26T06:13:12.214Z,1008.5
2017-07-26T06:14:34.045Z,1008.48
2017-07-26T06:15:55.416Z,1008.54
2017-07-26T06:17:17.895Z,1008.48
2017-07-26T06:18:39.372Z,1008.53
2017-07-26T06:20:01.537Z,1008.52
2017-07-26T06:21:23.089Z,1008.51
2017-07-26T06:22:44.974Z,1008.53
2017-07-26T06:24:07.477Z,1008.43
2017-07-26T06:25:29.728Z,1008.48
2017-07-26T06:26:51.900Z,1008.46
2017-07-26T06:28:13.763Z,1008.44
2017-07-26T06:29:36.391Z,1008.47
2017-07-26T06:30:57.597Z,1008.49
2017-07-26T06:32:19.807Z,1008.49
2017-07-26T06:33:41.344Z,1008.5
2017-07-26T06:35:03.215Z,1008.48
2017-07-26T06:36:25.708Z,1008.53
2017-07-26T06:37:47.918Z,1008.53
2017-07-26T06:39:09.800Z,1008.51
2017-07-26T06:40:31.949Z,1008.54
2017-07-26T06:41:53.486Z,1008.58
2017-07-26T06:43:15.310Z,1008.6
2017-07-26T06:44:37.559Z,1008.56
2017-07-26T06:46:00.295Z,1008.61
2017-07-26T06:47:22.466Z,1008.62
2017-07-26T06:48:45.014Z,1008.6
2017-07-26T06:50:07.179Z,1008.63
2017-07-26T06:51:29.386Z,1008.6
2017-07-26T06:52:51.612Z,1008.65
2017-07-26T06:54:13.520Z,1008.68
2017-07-26T06:55:35.479Z,1008.67
2017-07-26T06:56:57.936Z,1008.65
2017-07-26T06:58:20.087Z,1008.61
2017-07-26T06:59:42.616Z,1008.61
2017-07-26T07:01:04.457Z,1008.6
2017-07-26T07:02:26.580Z,1008.6
2017-07-26T07:03:49.080Z,1008.57
2017-07-26T07:05:11.247Z,1008.58
2017-07-26T07:06:33.415Z,1008.54
2017-07-26T07:07:55.485Z,1008.54
2017-07-26T07:09:17.759Z,1008.52
2017-07-26T07:10:39.930Z,1008.53
2017-07-26T07:12:02.396Z,1008.53
2017-07-26T07:13:24.901Z,1008.58
2017-07-26T07:14:47.497Z,1008.66
2017-07-26T07:16:09.685Z,1008.66
2017-07-26T07:17:31.837Z,1008.66
2017-07-26T07:18:54.346Z,1008.71
2017-07-26T07:20:16.285Z,1008.64
2017-07-26T07:21:37.943Z,1008.69
2017-07-26T07:22:59.885Z,1008.68
2017-07-26T07:24:22.736Z,1008.7
2017-07-26T07:25:44.598Z,1008.64
2017-07-26T07:27:07.077Z,1008.64
2017-07-26T07:28:29.642Z,1008.67
2017-07-26T07:29:52.368Z,1008.64
2017-07-26T07:31:14.515Z,1008.67
2017-07-26T07:32:36.778Z,1008.68
2017-07-26T07:33:58.616Z,1008.76
2017-07-26T07:35:21.124Z,1008.77
2017-07-26T07:36:43.336Z,1008.81
2017-07-26T07:38:05.230Z,1008.81
2017-07-26T07:39:27.058Z,1008.8
2017-07-26T07:40:49.848Z,1008.87
2017-07-26T07:42:11.678Z,1008.83
2017-07-26T07:43:34.260Z,1008.89
2017-07-26T07:44:56.106Z,1008.9
2017-07-26T07:46:17.565Z,1008.88
2017-07-26T07:47:39.403Z,1008.93
2017-07-26T07:49:01.226Z,1008.96
2017-07-26T07:50:23.058Z,1008.96
2017-07-26T07:51:45.658Z,1008.93
2017-07-26T07:53:07.820Z,1008.92
2017-07-26T07:54:29.978Z,1008.92
2017-07-26T07:55:52.489Z,1008.9
2017-07-26T07:57:14.983Z,1008.92
2017-07-26T07:58:37.172Z,1008.9
2017-07-26T07:59:58.388Z,1008.96
2017-07-26T08:01:20.580Z,1008.92
2017-07-26T08:02:43.371Z,1008.91
2017-07-26T08:04:05.531Z,1008.88
2017-07-26T08:05:28.033Z,1008.95
2017-07-26T08:06:50.196Z,1008.91
2017-07-26T08:08:12.596Z,1008.93
2017-07-26T08:09:34.455Z,1008.97
2017-07-26T08:10:56.837Z,1008.94
2017-07-26T08:12:19.096Z,1008.96
2017-07-26T08:13:41.836Z,1008.95
2017-07-26T08:15:04.490Z,1008.96
2017-07-26T08:16:26.076Z,1008.89
2017-07-26T08:17:48.727Z,1008.87
2017-07-26T08:19:11.575Z,1008.89
2017-07-26T08:20:34.077Z,1008.9
2017-07-26T08:21:55.609Z,1008.88
2017-07-26T08:23:17.449Z,1008.95
2017-07-26T08:24:39.536Z,1008.95
2017-07-26T08:26:01.808Z,1008.96
2017-07-26T08:27:24.295Z,1008.98
2017-07-26T08:28:46.136Z,1008.92
2017-07-26T08:30:07.930Z,1008.99
2017-07-26T08:31:30.115Z,1008.92
2017-07-26T08:32:52.427Z,1008.99
2017-07-26T08:34:14.330Z,1008.91
2017-07-26T08:35:37.059Z,1008.91
2017-07-26T08:36:58.609Z,1008.9
2017-07-26T08:38:20.795Z,1008.83
2017-07-26T08:39:42.389Z,1008.9
2017-07-26T08:41:04.516Z,1008.89
2017-07-26T08:42:26.716Z,1008.9
2017-07-26T08:43:48.562Z,1008.92
2017-07-26T08:45:11.127Z,1008.91
2017-07-26T08:46:33.298Z,1008.92
2017-07-26T08:47:55.763Z,1008.95
2017-07-26T08:49:17.969Z,1008.87
2017-07-26T08:50:40.487Z,1008.86
2017-07-26T08:52:02.605Z,1008.94
2017-07-26T08:53:23.827Z,1008.94
2017-07-26T08:54:46.323Z,1008.93
2017-07-26T08:56:08.177Z,1008.92
2017-07-26T08:57:30.496Z,1008.92
2017-07-26T08:58:52.340Z,1008.98
2017-07-26T09:00:13.916Z,1008.98
2017-07-26T09:01:36.445Z,1008.92
2017-07-26T09:02:58.605Z,1008.95
2017-07-26T09:04:20.452Z,1008.98
2017-07-26T09:05:42.634Z,1008.99
2017-07-26T09:07:05.119Z,1009.04
2017-07-26T09:08:27.590Z,1009.02
2017-07-26T09:09:49.486Z,1009
2017-07-26T09:11:11.632Z,1009.03
2017-07-26T09:12:33.504Z,1009.02
2017-07-26T09:13:55.960Z,1009.01
2017-07-26T09:15:17.612Z,1008.98
2017-07-26T09:16:40.097Z,1009.05
2017-07-26T09:18:01.954Z,1008.99
2017-07-26T09:19:24.422Z,1009.04
2017-07-26T09:20:47.035Z,1009.05
2017-07-26T09:22:09.215Z,1009.08
2017-07-26T09:23:30.520Z,1009.02
2017-07-26T09:24:53.055Z,1009.09
2017-07-26T09:26:15.567Z,1009.13
2017-07-26T09:27:37.727Z,1009.13
2017-07-26T09:29:00.202Z,1009.13
2017-07-26T09:30:22.727Z,1009.11
2017-07-26T09:31:44.928Z,1009.06
2017-07-26T09:33:06.765Z,1009.03
2017-07-26T09:34:29.006Z,1009.03
2017-07-26T09:35:51.486Z,1009.07
2017-07-26T09:37:14.027Z,1009.03
2017-07-26T09:38:35.905Z,1009.08
2017-07-26T09:39:58.104Z,1009.17
2017-07-26T09:41:20.891Z,1009.09
2017-07-26T09:42:42.761Z,1009.11
2017-07-26T09:44:05.958Z,1009.06
2017-07-26T09:45:29.166Z,1009.15
2017-07-26T09:46:51.733Z,1009.11
2017-07-26T09:48:13.918Z,1009.16
2017-07-26T09:49:36.419Z,1009.16
2017-07-26T09:50:57.976Z,1009.16
2017-07-26T09:52:19.896Z,1009.18
2017-07-26T09:53:42.136Z,1009.22
2017-07-26T09:55:04.038Z,1009.21
2017-07-26T09:56:26.526Z,1009.13
2017-07-26T09:57:48.658Z,1009.15
2017-07-26T09:59:10.496Z,1009.21
2017-07-26T10:00:32.686Z,1009.13
2017-07-26T10:01:54.560Z,1009.06
2017-07-26T10:03:16.766Z,1009.09
2017-07-26T10:04:37.772Z,1009.01
2017-07-26T10:06:00.233Z,1008.93
2017-07-26T10:07:22.404Z,1008.94
2017-07-26T10:08:44.917Z,1008.96
2017-07-26T10:10:07.505Z,1008.9
2017-07-26T10:11:29.362Z,1008.88
2017-07-26T10:12:51.212Z,1008.84
2017-07-26T10:14:13.982Z,1008.85
2017-07-26T10:15:36.146Z,1008.8
2017-07-26T10:16:57.742Z,1008.85
2017-07-26T10:18:19.918Z,1008.83
2017-07-26T10:19:42.706Z,1008.82
2017-07-26T10:21:04.324Z,1008.93
2017-07-26T10:22:25.877Z,1009.05
2017-07-26T10:23:47.509Z,1009.02
2017-07-26T10:25:09.984Z,1008.98
2017-07-26T10:26:32.152Z,1008.95
2017-07-26T10:27:54.350Z,1008.97
2017-07-26T10:29:16.529Z,1008.98
2017-07-26T10:30:38.925Z,1009.02
2017-07-26T10:32:01.256Z,1009.12
2017-07-26T10:33:22.804Z,1009.15
2017-07-26T10:34:44.358Z,1009.07
2017-07-26T10:36:07.106Z,1009.09
2017-07-26T10:37:29.604Z,1009.06
2017-07-26T10:38:51.522Z,1009.03
2017-07-26T10:40:13.679Z,1008.99
2017-07-26T10:41:36.467Z,1008.95
2017-07-26T10:42:58.101Z,1009.01
2017-07-26T10:44:20.270Z,1008.99
2017-07-26T10:45:42.222Z,1008.96
2017-07-26T10:47:04.067Z,1008.97
2017-07-26T10:48:26.234Z,1008.98
2017-07-26T10:49:48.806Z,1008.95
2017-07-26T10:51:11.298Z,1008.99
2017-07-26T10:52:33.774Z,1008.98
2017-07-26T10:53:55.935Z,1009.04
2017-07-26T10:55:18.402Z,1008.99
2017-07-26T10:56:39.941Z,1009.03
2017-07-26T10:58:03.104Z,1009.05
2017-07-26T10:59:25.596Z,1009.04
2017-07-26T11:00:48.169Z,1009.09
2017-07-26T11:02:10.043Z,1009.03
2017-07-26T11:03:31.937Z,1009.08
2017-07-26T11:04:53.791Z,1009.02
2017-07-26T11:06:15.686Z,1009.01
2017-07-26T11:07:38.185Z,1008.99
2017-07-26T11:09:00.592Z,1009.01
2017-07-26T11:10:22.744Z,1009.08
2017-07-26T11:11:44.251Z,1009.07
2017-07-26T11:13:06.436Z,1008.98
2017-07-26T11:14:29.304Z,1009.07
2017-07-26T11:15:51.470Z,1009.18
2017-07-26T11:17:13.555Z,1009.05
2017-07-26T11:18:35.406Z,1008.98
2017-07-26T11:19:57.891Z,1009.02
2017-07-26T11:21:19.745Z,1009.01
2017-07-26T11:22:41.631Z,1009.02
2017-07-26T11:24:04.085Z,1009.03
2017-07-26T11:25:26.217Z,1009.08
2017-07-26T11:26:48.081Z,1009.05
2017-07-26T11:28:10.323Z,1009.06
2017-07-26T11:29:32.814Z,1009.03
2017-07-26T11:30:55.786Z,1009.02
2017-07-26T11:32:18.066Z,1009.16
2017-07-26T11:33:40.246Z,1009.14
2017-07-26T11:35:02.724Z,1009.12
2017-07-26T11:36:25.267Z,1009.14
2017-07-26T11:37:47.939Z,1009.2
2017-07-26T11:39:09.798Z,1009.21
2017-07-26T11:40:32.333Z,1009.2
2017-07-26T11:41:54.774Z,1009.12
2017-07-26T11:43:17.105Z,1008.99
2017-07-26T11:44:39.429Z,1009.05
2017-07-26T11:46:01.706Z,1009.07
2017-07-26T11:47:23.834Z,1009.06
2017-07-26T11:48:46.002Z,1009.11
2017-07-26T11:50:08.197Z,1009.07
2017-07-26T11:51:30.729Z,1009.06
2017-07-26T11:52:53.436Z,1009.08
2017-07-26T11:54:15.600Z,1009.02
2017-07-26T11:55:37.168Z,1009.02
2017-07-26T11:56:58.846Z,1009.05
2017-07-26T11:58:21.378Z,1009.17
2017-07-26T11:59:43.643Z,1009.09
2017-07-26T12:01:05.805Z,1009.13
2017-07-26T12:02:27.776Z,1009.17
2017-07-26T12:03:49.996Z,1009.3
2017-07-26T12:05:12.507Z,1009.23
2017-07-26T12:06:34.346Z,1009.19
2017-07-26T12:07:56.825Z,1009.11
2017-07-26T12:09:19.598Z,1009.04
2017-07-26T12:10:41.759Z,1009.11
2017-07-26T12:12:03.283Z,1009.15
2017-07-26T12:13:24.794Z,1009.12
2017-07-26T12:14:46.962Z,1009.09
2017-07-26T12:16:09.466Z,1009.12
2017-07-26T12:17:31.620Z,1009.1
2017-07-26T12:18:53.546Z,1009.05
2017-07-26T12:20:15.716Z,1009.11
2017-07-26T12:21:37.885Z,1009.08
2017-07-26T12:23:00.213Z,1009.1
2017-07-26T12:24:22.475Z,1009.14
2017-07-26T12:25:44.952Z,1009.08
2017-07-26T12:27:07.246Z,1009.1
2017-07-26T12:28:29.413Z,1009.11
2017-07-26T12:29:51.582Z,1009.12
2017-07-26T12:31:13.818Z,1009.07
2017-07-26T12:32:35.974Z,1009.05
2017-07-26T12:33:58.155Z,1009.06
2017-07-26T12:35:20.625Z,1009.11
2017-07-26T12:36:43.408Z,1009.09
2017-07-26T12:38:05.389Z,1009.25
2017-07-26T12:39:27.560Z,1009.19
2017-07-26T12:40:49.738Z,1009.18
2017-07-26T12:42:12.200Z,1009.17
2017-07-26T12:43:34.366Z,1009.11
2017-07-26T12:44:56.557Z,1009.17
2017-07-26T12:46:18.728Z,1009.15
2017-07-26T12:47:40.995Z,1009.17
2017-07-26T12:49:03.235Z,1009.16
2017-07-26T12:50:25.188Z,1009.17
2017-07-26T12:51:47.375Z,1009.15
2017-07-26T12:53:09.864Z,1009.12
2017-07-26T12:54:32.045Z,1009.12
2017-07-26T12:55:54.213Z,1009.11
2017-07-26T12:57:16.384Z,1009.09
2017-07-26T12:58:38.905Z,1009.05
2017-07-26T13:00:01.069Z,1009.03
2017-07-26T13:01:22.280Z,1008.97
2017-07-26T13:02:44.494Z,1009
2017-07-26T13:04:06.903Z,1009.01
2017-07-26T13:05:29.375Z,1009.05
2017-07-26T13:06:51.593Z,1009
2017-07-26T13:08:13.772Z,1009
2017-07-26T13:09:35.636Z,1009.08
2017-07-26T13:10:58.003Z,1009.04
2017-07-26T13:12:20.198Z,1009.01
2017-07-26T13:13:42.821Z,1009.04
2017-07-26T13:15:05.576Z,1009.04
2017-07-26T13:16:27.757Z,1009
2017-07-26T13:17:49.946Z,1009.02
2017-07-26T13:19:12.204Z,1009.02
2017-07-26T13:20:34.654Z,1009.04
2017-07-26T13:21:55.884Z,1009.06
2017-07-26T13:23:18.385Z,1009
2017-07-26T13:24:40.533Z,1008.95
2017-07-26T13:26:03.255Z,1009.04
2017-07-26T13:27:24.796Z,1009.05
2017-07-26T13:28:47.276Z,1009.07
2017-07-26T13:30:09.433Z,1009.05
2017-07-26T13:31:31.928Z,1008.98
2017-07-26T13:32:54.395Z,1008.97
2017-07-26T13:34:16.898Z,1009
2017-07-26T13:35:38.469Z,1008.99
2017-07-26T13:37:00.279Z,1008.98
2017-07-26T13:38:22.765Z,1008.99
2017-07-26T13:39:44.613Z,1008.98
2017-07-26T13:41:06.829Z,1009
2017-07-26T13:42:29.363Z,1008.98
2017-07-26T13:43:51.625Z,1008.97
2017-07-26T13:45:13.827Z,1008.98
2017-07-26T13:46:35.995Z,1009.03
2017-07-26T13:47:58.474Z,1009.02
2017-07-26T13:49:20.669Z,1009.04
2017-07-26T13:50:42.241Z,1008.99
2017-07-26T13:52:04.416Z,1009.04
2017-07-26T13:53:26.698Z,1008.99
2017-07-26T13:54:48.010Z,1008.97
2017-07-26T13:56:10.190Z,1008.97
2017-07-26T13:57:32.515Z,1008.99
2017-07-26T13:58:55.368Z,1009.05
2017-07-26T14:00:17.535Z,1008.99
2017-07-26T14:01:39.508Z,1008.97
2017-07-26T14:03:01.675Z,1008.94
2017-07-26T14:04:23.794Z,1009.02
2017-07-26T14:05:45.675Z,1008.96
2017-07-26T14:07:07.880Z,1008.94
2017-07-26T14:08:30.195Z,1008.97
2017-07-26T14:09:52.425Z,1008.94
2017-07-26T14:11:14.286Z,1008.9
2017-07-26T14:12:36.473Z,1008.87
2017-07-26T14:13:58.335Z,1008.87
2017-07-26T14:15:20.490Z,1008.86
2017-07-26T14:16:42.368Z,1008.9
2017-07-26T14:18:04.874Z,1008.89
2017-07-26T14:19:27.034Z,1008.89
2017-07-26T14:20:49.480Z,1008.96
2017-07-26T14:22:11.702Z,1008.89
2017-07-26T14:23:33.914Z,1008.88
2017-07-26T14:24:56.226Z,1008.89
2017-07-26T14:26:19.054Z,1008.92
2017-07-26T14:27:41.225Z,1008.89
2017-07-26T14:29:03.380Z,1008.82
2017-07-26T14:30:25.918Z,1008.9
2017-07-26T14:31:48.192Z,1008.78
2017-07-26T14:33:10.354Z,1008.78
2017-07-26T14:34:32.527Z,1008.94
2017-07-26T14:35:54.427Z,1008.8
2017-07-26T14:37:17.216Z,1008.85
2017-07-26T14:38:39.137Z,1008.88
2017-07-26T14:40:01.304Z,1008.82
2017-07-26T14:41:23.173Z,1008.77
2017-07-26T14:42:45.723Z,1008.77
2017-07-26T14:44:07.634Z,1008.76
2017-07-26T14:45:30.169Z,1008.75
2017-07-26T14:46:52.012Z,1008.73
2017-07-26T14:48:14.095Z,1008.72
2017-07-26T14:49:36.263Z,1008.7
2017-07-26T14:50:58.453Z,1008.75
2017-07-26T14:52:20.627Z,1008.71
2017-07-26T14:53:42.412Z,1008.77
2017-07-26T14:55:03.945Z,1008.73
2017-07-26T14:56:26.133Z,1008.73
2017-07-26T14:57:47.974Z,1008.71
2017-07-26T14:59:10.204Z,1008.77
2017-07-26T15:00:32.362Z,1008.82
2017-07-26T15:01:54.530Z,1008.78
2017-07-26T15:03:16.700Z,1008.79
2017-07-26T15:04:39.452Z,1008.79
2017-07-26T15:06:01.599Z,1008.74
2017-07-26T15:07:23.566Z,1008.73
2017-07-26T15:08:45.522Z,1008.77
2017-07-26T15:10:07.988Z,1008.75
2017-07-26T15:11:29.894Z,1008.75
2017-07-26T15:12:52.074Z,1008.74
2017-07-26T15:14:14.584Z,1008.85
2017-07-26T15:15:37.431Z,1008.78
2017-07-26T15:16:59.363Z,1008.8
2017-07-26T15:18:21.292Z,1008.83
2017-07-26T15:19:43.198Z,1008.85
2017-07-26T15:21:05.704Z,1008.78
2017-07-26T15:22:27.890Z,1008.79
2017-07-26T15:23:49.788Z,1008.73
2017-07-26T15:25:12.158Z,1008.8
2017-07-26T15:26:34.949Z,1008.74
2017-07-26T15:27:56.807Z,1008.75
2017-07-26T15:29:19.307Z,1008.74
2017-07-26T15:30:41.543Z,1008.74
2017-07-26T15:32:03.663Z,1008.79
2017-07-26T15:33:25.952Z,1008.89
2017-07-26T15:34:47.189Z,1008.79
2017-07-26T15:36:09.455Z,1008.8
2017-07-26T15:37:31.601Z,1008.83
2017-07-26T15:38:53.524Z,1008.78
2017-07-26T15:40:15.726Z,1008.81
2017-07-26T15:41:36.947Z,1008.79
2017-07-26T15:42:59.081Z,1008.75
2017-07-26T15:44:21.254Z,1008.8
2017-07-26T15:45:43.441Z,1008.74
2017-07-26T15:47:05.614Z,1008.73
2017-07-26T15:48:27.150Z,1008.76
2017-07-26T15:49:49.640Z,1008.71
2017-07-26T15:51:11.908Z,1008.73
2017-07-26T15:52:34.085Z,1008.68
2017-07-26T15:53:56.905Z,1008.7
2017-07-26T15:55:19.055Z,1008.73
2017-07-26T15:56:41.542Z,1008.74
2017-07-26T15:58:03.755Z,1008.71
2017-07-26T15:59:25.963Z,1008.71
2017-07-26T16:00:47.830Z,1008.71
2017-07-26T16:02:10.326Z,1008.71
2017-07-26T16:03:32.519Z,1008.73
2017-07-26T16:04:55.113Z,1008.73
2017-07-26T16:06:17.354Z,1008.75
2017-07-26T16:07:39.613Z,1008.75
2017-07-26T16:09:01.824Z,1008.76
2017-07-26T16:10:23.958Z,1008.73
2017-07-26T16:11:45.845Z,1008.77
2017-07-26T16:13:08.394Z,1008.76
2017-07-26T16:14:30.589Z,1008.8
2017-07-26T16:15:53.437Z,1008.8
2017-07-26T16:17:15.944Z,1008.79
2017-07-26T16:18:37.796Z,1008.82
2017-07-26T16:19:59.979Z,1008.84
2017-07-26T16:21:22.516Z,1008.83
2017-07-26T16:22:45.217Z,1008.84
2017-07-26T16:24:07.472Z,1008.84
2017-07-26T16:25:29.956Z,1008.83
2017-07-26T16:26:52.516Z,1008.88
2017-07-26T16:28:14.782Z,1008.81
2017-07-26T16:29:37.290Z,1008.82
2017-07-26T16:30:59.485Z,1008.85
2017-07-26T16:32:22.013Z,1008.86
2017-07-26T16:33:43.866Z,1008.85
2017-07-26T16:35:06.451Z,1008.85
2017-07-26T16:36:28.307Z,1008.92
2017-07-26T16:37:50.817Z,1008.91